TimeICT,TemperatureF,Dew PointF,Humidity,Sea Level PressureIn,VisibilityMPH,Wind Direction,Wind SpeedMPH,Gust SpeedMPH,PrecipitationIn,Events,Conditions,WindDirDegrees,DateUTC
12:00 AM,78.8,75.2,89,29.83,5.0,NNW,18.4,32.2,N/A,Rain,Light Rain,330,2013-09-26 17:00:00
12:30 AM,75.2,73.4,94,29.83,5.0,NW,16.1,-,N/A,Rain-Thunderstorm,Thunderstorms and Rain,320,2013-09-26 17:30:00
1:00 AM,73.4,73.4,100,29.80,5.0,NW,9.2,-,N/A,Rain-Thunderstorm,Light Thunderstorms and Rain,310,2013-09-26 18:00:00
7:00 AM,,,,,,Calm,Calm,,,,,,2013-09-27 00:00:00
7:00 AM,77.0,75.2,94,29.80,5.6,Calm,Calm,-,N/A,Rain,Light Rain,0,2013-09-27 00:00:00
8:00 AM,-9999,75.2,N/A,29.80,5.6,North,1.2,-,N/A,Rain,Light Rain,360,2013-09-27 01:00:00
8:30 AM,78.8,75.2,89,29.80,5.6,Calm,Calm,-,N/A,,Mostly Cloudy,0,2013-09-27 01:30:00
9:00 AM,78.8,75.2,89,29.83,5.6,Calm,Calm,-,N/A,,Mostly Cloudy,0,2013-09-27 02:00:00
9:30 AM,80.6,77.0,89,29.83,5.6,Calm,Calm,-,N/A,,Mostly Cloudy,0,2013-09-27 02:30:00
11:00 AM,82.4,77.0,84,29.80,5.6,Calm,Calm,-,N/A,,Mostly Cloudy,0,2013-09-27 04:00:00
11:30 AM,82.4,77.0,84,29.80,5.6,Variable,2.3,-,N/A,,Mostly Cloudy,0,2013-09-27 04:30:00
12:00 PM,82.4,77.0,84,29.77,5.6,Variable,2.3,-,N/A,,Mostly Cloudy,0,2013-09-27 05:00:00
1:30 PM,84.2,77.0,79,29.71,5.6,Variable,1.2,-,N/A,,Mostly Cloudy,0,2013-09-27 06:30:00
2:00 PM,84.2,77.0,79,29.71,6.2,Calm,Calm,-,N/A,,Mostly Cloudy,0,2013-09-27 07:00:00
2:30 PM,86.0,77.0,74,29.68,6.2,Calm,Calm,-,N/A,,Mostly Cloudy,0,2013-09-27 07:30:00
3:00 PM,86.0,75.2,70,29.68,6.2,Calm,Calm,-,N/A,,Mostly Cloudy,0,2013-09-27 08:00:00
3:30 PM,86.0,75.2,70,29.68,6.2,Variable,3.5,-,N/A,,Mostly Cloudy,0,2013-09-27 08:30:00
4:00 PM,86.0,75.2,70,29.68,6.2,Calm,Calm,-,N/A,,Scattered Clouds,0,2013-09-27 09:00:00
4:30 PM,86.0,75.2,70,29.68,6.2,Calm,Calm,-,N/A,,Scattered Clouds,0,2013-09-27 09:30:00
5:00 PM,84.2,75.2,74,29.68,6.2,Calm,Calm,-,N/A,,Scattered Clouds,0,2013-09-27 10:00:00
5:30 PM,84.2,78.8,84,29.71,0.2,Calm,Calm,-,N/A,Rain,Heavy Rain,0,2013-09-27 10:30:00
6:30 PM,75.2,73.4,94,29.71,5.0,Calm,Calm,-,N/A,Rain-Thunderstorm,Light Thunderstorms and Rain,0,2013-09-27 11:30:00
7:00 PM,75.2,73.4,94,29.74,5.0,Calm,Calm,-,N/A,,Mostly Cloudy,0,2013-09-27 12:00:00
7:30 PM,77.0,75.2,94,29.74,5.0,Calm,Calm,-,N/A,,Mostly Cloudy,0,2013-09-27 12:30:00
8:00 PM,77.0,75.2,94,29.77,5.0,Calm,Calm,-,N/A,,Mostly Cloudy,0,2013-09-27 13:00:00
8:30 PM,78.8,77.0,94,29.80,5.0,Calm,Calm,-,N/A,,Mostly Cloudy,0,2013-09-27 13:30:00
9:00 PM,78.8,77.0,94,29.80,5.0,Calm,Calm,-,N/A,,Mostly Cloudy,0,2013-09-27 14:00:00
9:30 PM,78.8,77.0,94,29.80,5.0,Calm,Calm,-,N/A,,Mostly Cloudy,0,2013-09-27 14:30:00
10:00 PM,78.8,75.2,89,29.80,4.3,Variable,2.3,-,N/A,Rain,Light Rain,0,2013-09-27 15:00:00
10:30 PM,77.0,75.2,94,29.80,4.3,Calm,Calm,-,N/A,Rain,Light Rain,0,2013-09-27 15:30:00
11:00 PM,77.0,73.4,89,29.80,4.3,Calm,Calm,-,N/A,Rain,Light Rain,0,2013-09-27 16:00:00
11:30 PM,77.0,75.2,94,29.80,4.3,SSE,2.3,-,N/A,Rain,Light Rain,160,2013-09-27 16:30:00